sensor_id;sensor_type;location;lat;lon;timestamp;pressure;altitude;pressure_sealevel;temperature;humidity
51293;BME280;37377;45.186;9.778;2024-03-02T08:33:00;100500;;;13.9;73.5
51293;BME280;37377;45.186;9.778;2024-03-02T08:34:00;100500;;;13.7;73.7
51293;BME280;37377;45.186;9.778;2024-03-02T08:35:00;100500;;;13.7;73.7
51293;BME280;37377;45.186;9.778;2024-03-02T08:36:00;100500;;;13.7;73.7
51293;BME280;37377;45.186;9.778;2024-03-02T14:10:00;100460;;;15.9;69.7
51293;BME280;37377;45.186;9.778;2024-03-02T14:11:00;100460;;;15.9;69.7
51293;BME280;37377;45.186;9.778;2024-03-02T15:38:00;100440;;;17.3;63.9
51293;BME280;37377;45.186;9.778;2024-03-02T15:39:00;100440;;;17.3;63.9
51293;BME280;37377;45.186;9.778;2024-03-02T17:16:00;100440;;;15.3;71.0
51293;BME280;37377;45.186;9.778;2024-03-02T17:17:00;100440;;;15.3;71.0
51293;BME280;37377;45.186;9.778;2024-03-02T17:18:00;100440;;;15.3;71.0
51293;BME280;37377;45.186;9.778;2024-03-02T17:19:00;100450;;;15.1;71.7
51293;BME280;37377;45.186;9.778;2024-03-02T17:20:00;100450;;;15.1;71.7
51293;BME280;37377;45.186;9.778;2024-03-02T17:21:00;100450;;;15.1;71.7
51293;BME280;37377;45.186;9.778;2024-03-02T17:25:00;100460;;;15.1;70.5
51293;BME280;37377;45.186;9.778;2024-03-02T17:26:00;100460;;;15.1;70.5
51293;BME280;37377;45.186;9.778;2024-03-02T17:27:00;100460;;;15.1;70.5
51293;BME280;37377;45.186;9.778;2024-03-02T17:32:00;100480;;;15.5;68.8
51293;BME280;37377;45.186;9.778;2024-03-02T17:33:00;100480;;;15.5;68.8
51293;BME280;37377;45.186;9.778;2024-03-02T17:34:00;100480;;;15.5;68.8
51293;BME280;37377;45.186;9.778;2024-03-02T17:35:00;100480;;;15.5;68.8
51293;BME280;37377;45.186;9.778;2024-03-02T17:40:00;100480;;;15.4;70.2
51293;BME280;37377;45.186;9.778;2024-03-02T17:41:00;100480;;;15.4;70.2
51293;BME280;37377;45.186;9.778;2024-03-02T17:42:00;100480;;;15.8;70.2
51293;BME280;37377;45.186;9.778;2024-03-02T17:43:00;100480;;;15.8;70.2
51293;BME280;37377;45.186;9.778;2024-03-02T17:44:00;100480;;;15.3;70.5
51293;BME280;37377;45.186;9.778;2024-03-02T17:45:00;100480;;;15.3;70.5
51293;BME280;37377;45.186;9.778;2024-03-02T17:46:00;100480;;;15.3;70.5
51293;BME280;37377;45.186;9.778;2024-03-02T17:47:00;100480;;;15.3;70.5
51293;BME280;37377;45.186;9.778;2024-03-02T17:48:00;100480;;;15.3;70.5
51293;BME280;37377;45.186;9.778;2024-03-02T17:49:00;100480;;;15.3;70.5
51293;BME280;37377;45.186;9.778;2024-03-02T17:50:00;100480;;;15.3;70.5
51293;BME280;37377;45.186;9.778;2024-03-02T17:52:00;100480;;;15.4;69.5
51293;BME280;37377;45.186;9.778;2024-03-02T17:53:00;100480;;;15.4;69.5
51293;BME280;37377;45.186;9.778;2024-03-02T17:54:00;100480;;;15.4;69.5
51293;BME280;37377;45.186;9.778;2024-03-02T17:56:00;100500;;;15.5;68.8
51293;BME280;37377;45.186;9.778;2024-03-02T17:57:00;100500;;;15.5;68.8
51293;BME280;37377;45.186;9.778;2024-03-02T17:58:00;100500;;;15.5;68.8
51293;BME280;37377;45.186;9.778;2024-03-02T17:59:00;100500;;;15.5;68.8
51293;BME280;37377;45.186;9.778;2024-03-02T18:00:00;100500;;;15.5;68.8
51293;BME280;37377;45.186;9.778;2024-03-02T18:01:00;100500;;;15.5;68.8
51293;BME280;37377;45.186;9.778;2024-03-02T18:19:00;100500;;;15.1;71.1
51293;BME280;37377;45.186;9.778;2024-03-02T18:20:00;100500;;;15.1;71.1
51293;BME280;37377;45.186;9.778;2024-03-02T18:21:00;100500;;;15.1;71.1
51293;BME280;37377;45.186;9.778;2024-03-02T18:22:00;100480;;;14.5;71.1
51293;BME280;37377;45.186;9.778;2024-03-02T18:23:01;100480;;;14.5;71.1
51293;BME280;37377;45.186;9.778;2024-03-02T18:24:00;100480;;;14.5;71.1
51293;BME280;37377;45.186;9.778;2024-03-02T18:25:00;100480;;;14.5;71.1
51293;BME280;37377;45.186;9.778;2024-03-02T18:26:00;100480;;;14.5;71.1
51293;BME280;37377;45.186;9.778;2024-03-02T18:27:00;100470;;;14.4;73.8
51293;BME280;37377;45.186;9.778;2024-03-02T18:28:00;100470;;;14.3;73.9
51293;BME280;37377;45.186;9.778;2024-03-02T18:29:00;100470;;;14.3;73.9
51293;BME280;37377;45.186;9.778;2024-03-02T18:30:00;100480;;;14.6;73.8
51293;BME280;37377;45.186;9.778;2024-03-02T18:31:00;100480;;;14.6;73.8
51293;BME280;37377;45.186;9.778;2024-03-02T18:32:00;100480;;;14.6;73.4
51293;BME280;37377;45.186;9.778;2024-03-02T18:33:00;100480;;;14.6;73.4
51293;BME280;37377;45.186;9.778;2024-03-02T18:34:00;100490;;;14.7;72.9
51293;BME280;37377;45.186;9.778;2024-03-02T18:35:00;100490;;;14.7;72.9
51293;BME280;37377;45.186;9.778;2024-03-02T18:36:00;100490;;;14.4;73.5
51293;BME280;37377;45.186;9.778;2024-03-02T18:37:00;100490;;;14.4;73.5
51293;BME280;37377;45.186;9.778;2024-03-02T18:38:00;100490;;;14.4;73.5
51293;BME280;37377;45.186;9.778;2024-03-02T18:39:00;100490;;;14.4;73.5
51293;BME280;37377;45.186;9.778;2024-03-02T18:40:00;100480;;;14.4;73.7
51293;BME280;37377;45.186;9.778;2024-03-02T18:41:00;100480;;;14.4;73.7
51293;BME280;37377;45.186;9.778;2024-03-02T18:42:00;100480;;;14.4;73.7
51293;BME280;37377;45.186;9.778;2024-03-02T18:43:00;100480;;;14.4;73.7
51293;BME280;37377;45.186;9.778;2024-03-02T18:45:00;100480;;;14.3;73.6
51293;BME280;37377;45.186;9.778;2024-03-02T18:46:00;100490;;;14.1;74.0
51293;BME280;37377;45.186;9.778;2024-03-02T18:47:00;100490;;;14.1;74.0
51293;BME280;37377;45.186;9.778;2024-03-02T18:48:00;100490;;;14.1;74.0
51293;BME280;37377;45.186;9.778;2024-03-02T18:49:00;100490;;;14.1;74.0
51293;BME280;37377;45.186;9.778;2024-03-02T18:50:00;100480;;;14.6;73.5
51293;BME280;37377;45.186;9.778;2024-03-02T18:51:04;100480;;;14.6;73.5
51293;BME280;37377;45.186;9.778;2024-03-02T18:52:00;100480;;;14.6;73.5
